Millenbeck, Virginia
Current Conditions -  °F | °C
As of 11:00 AM on Saturday 20 Dec 2014 (Local Time) from KW75 Reporting Station
Clear Clear  
Wind Chill: 30°   Ceiling: Unl
Heat Index: 34°   Visibility: 10mi
Dew Point: 25°   Wind: 5mph
Humidity: 68%   Direction: 350°N
Pressure: 30.32"   Gusts: NA
Location:  37.7649°N, 76.5055°W
Report Text: KW75 201600Z AUTO 35004KT 10SM CLR 01/M04 A3032 RMK AO1 T00131041
Loading
Personal Weather Stations






























Interactive Weather Map New forecast layout! Learn more

10-Day Weather Forecast

Advertisements
Track Severe Weather on mobile